sensor_id;sensor_type;location;lat;lon;timestamp;pressure;altitude;pressure_sealevel;temperature;humidity
80149;BME280;69473;42.426;26.644;2023-10-08T00:02:25;99245.13;;;14.48;55.85
80149;BME280;69473;42.426;26.644;2023-10-08T00:04:52;99237.56;;;14.33;56.10
80149;BME280;69473;42.426;26.644;2023-10-08T00:07:22;99239.38;;;14.28;55.24
80149;BME280;69473;42.426;26.644;2023-10-08T00:09:50;99238.28;;;14.43;55.62
80149;BME280;69473;42.426;26.644;2023-10-08T00:12:19;99226.97;;;14.42;55.41
80149;BME280;69473;42.426;26.644;2023-10-08T00:14:48;99232.31;;;14.36;55.97
80149;BME280;69473;42.426;26.644;2023-10-08T00:17:16;99238.09;;;13.93;56.83
80149;BME280;69473;42.426;26.644;2023-10-08T00:19:43;99236.16;;;14.07;57.38
80149;BME280;69473;42.426;26.644;2023-10-08T00:22:12;99235.13;;;14.19;56.58
80149;BME280;69473;42.426;26.644;2023-10-08T00:24:43;99224.59;;;14.28;57.08
80149;BME280;69473;42.426;26.644;2023-10-08T00:27:11;99223.69;;;14.29;56.30
80149;BME280;69473;42.426;26.644;2023-10-08T00:29:40;99221.25;;;14.19;57.09
80149;BME280;69473;42.426;26.644;2023-10-08T00:32:09;99222.09;;;14.21;57.35
80149;BME280;69473;42.426;26.644;2023-10-08T00:34:39;99221.16;;;14.25;56.32
80149;BME280;69473;42.426;26.644;2023-10-08T00:37:08;99214.31;;;14.16;57.38
80149;BME280;69473;42.426;26.644;2023-10-08T00:39:35;99210.19;;;14.03;57.69
80149;BME280;69473;42.426;26.644;2023-10-08T00:42:03;99206.75;;;13.99;57.37
80149;BME280;69473;42.426;26.644;2023-10-08T00:44:31;99211.94;;;14.02;57.93
80149;BME280;69473;42.426;26.644;2023-10-08T00:47:01;99203.28;;;13.97;58.29
80149;BME280;69473;42.426;26.644;2023-10-08T00:49:30;99199.75;;;14.01;57.90
80149;BME280;69473;42.426;26.644;2023-10-08T00:52:13;99198.94;;;13.98;57.87
80149;BME280;69473;42.426;26.644;2023-10-08T00:54:41;99197.19;;;14.00;57.11
80149;BME280;69473;42.426;26.644;2023-10-08T00:57:27;99198.09;;;13.97;57.02
80149;BME280;69473;42.426;26.644;2023-10-08T00:59:55;99182.56;;;13.88;57.38
80149;BME280;69473;42.426;26.644;2023-10-08T01:02:26;99198.16;;;13.91;57.68
80149;BME280;69473;42.426;26.644;2023-10-08T01:04:55;99184.31;;;13.86;58.22
80149;BME280;69473;42.426;26.644;2023-10-08T01:07:22;99187.78;;;13.88;57.69
80149;BME280;69473;42.426;26.644;2023-10-08T01:09:49;99183.53;;;13.81;58.54
80149;BME280;69473;42.426;26.644;2023-10-08T01:12:22;99179.19;;;13.80;58.67
80149;BME280;69473;42.426;26.644;2023-10-08T01:15:01;99184.31;;;13.86;56.64
80149;BME280;69473;42.426;26.644;2023-10-08T01:17:41;99182.56;;;13.88;57.08
80149;BME280;69473;42.426;26.644;2023-10-08T01:20:16;99170.72;;;13.66;58.40
80149;BME280;69473;42.426;26.644;2023-10-08T01:22:59;99172.53;;;13.57;57.91
80149;BME280;69473;42.426;26.644;2023-10-08T01:25:29;99169.09;;;13.58;57.65
80149;BME280;69473;42.426;26.644;2023-10-08T01:27:58;99174.22;;;13.65;57.30
80149;BME280;69473;42.426;26.644;2023-10-08T01:30:29;99150.97;;;13.49;58.57
80149;BME280;69473;42.426;26.644;2023-10-08T01:33:00;99170.06;;;13.48;58.22
80149;BME280;69473;42.426;26.644;2023-10-08T01:35:28;99167.44;;;13.50;58.82
80149;BME280;69473;42.426;26.644;2023-10-08T01:37:57;99166.69;;;13.38;59.03
80149;BME280;69473;42.426;26.644;2023-10-08T01:40:25;99171.00;;;13.41;57.85
80149;BME280;69473;42.426;26.644;2023-10-08T01:42:51;99170.97;;;13.44;58.75
80149;BME280;69473;42.426;26.644;2023-10-08T01:45:17;99164.09;;;13.40;59.05
80149;BME280;69473;42.426;26.644;2023-10-08T01:47:44;99155.34;;;13.44;58.52
80149;BME280;69473;42.426;26.644;2023-10-08T01:50:09;99154.44;;;13.48;58.64
80149;BME280;69473;42.426;26.644;2023-10-08T01:52:49;99153.53;;;13.52;59.03
80149;BME280;69473;42.426;26.644;2023-10-08T01:55:15;99163.91;;;13.55;58.87
80149;BME280;69473;42.426;26.644;2023-10-08T01:57:49;99158.81;;;13.46;59.27
80149;BME280;69473;42.426;26.644;2023-10-08T02:00:17;99157.97;;;13.44;59.61
80149;BME280;69473;42.426;26.644;2023-10-08T02:02:50;99153.72;;;13.37;60.69
80149;BME280;69473;42.426;26.644;2023-10-08T02:05:16;99166.66;;;13.42;60.08
80149;BME280;69473;42.426;26.644;2023-10-08T02:07:47;99158.09;;;13.33;60.10
80149;BME280;69473;42.426;26.644;2023-10-08T02:10:13;99169.44;;;13.28;60.90
80149;BME280;69473;42.426;26.644;2023-10-08T02:12:42;99159.09;;;13.18;61.67
80149;BME280;69473;42.426;26.644;2023-10-08T02:15:08;99157.34;;;13.17;61.83
80149;BME280;69473;42.426;26.644;2023-10-08T02:17:36;99152.97;;;13.24;60.61
80149;BME280;69473;42.426;26.644;2023-10-08T02:20:04;99146.97;;;13.14;61.68
80149;BME280;69473;42.426;26.644;2023-10-08T02:22:33;99141.75;;;13.14;62.78
80149;BME280;69473;42.426;26.644;2023-10-08T02:24:59;99147.88;;;13.12;61.85
80149;BME280;69473;42.426;26.644;2023-10-08T02:27:28;99148.78;;;13.09;61.51
80149;BME280;69473;42.426;26.644;2023-10-08T02:29:54;99147.13;;;13.02;62.46
80149;BME280;69473;42.426;26.644;2023-10-08T02:32:21;99144.50;;;13.05;62.68
80149;BME280;69473;42.426;26.644;2023-10-08T02:34:50;99145.34;;;13.04;63.24
80149;BME280;69473;42.426;26.644;2023-10-08T02:37:18;99152.25;;;13.08;62.21
80149;BME280;69473;42.426;26.644;2023-10-08T02:39:45;99146.19;;;13.09;62.34
80149;BME280;69473;42.426;26.644;2023-10-08T02:42:10;99133.25;;;13.00;63.04
80149;BME280;69473;42.426;26.644;2023-10-08T02:44:37;99136.84;;;12.90;62.98
80149;BME280;69473;42.426;26.644;2023-10-08T02:47:09;99140.34;;;12.83;63.24
80149;BME280;69473;42.426;26.644;2023-10-08T02:49:47;99130.78;;;12.86;63.38
80149;BME280;69473;42.426;26.644;2023-10-08T02:52:18;99138.59;;;12.88;63.25
80149;BME280;69473;42.426;26.644;2023-10-08T02:54:44;99131.66;;;12.87;63.37
80149;BME280;69473;42.426;26.644;2023-10-08T02:57:10;99137.03;;;12.68;64.35
80149;BME280;69473;42.426;26.644;2023-10-08T02:59:36;99111.16;;;12.56;63.70
80149;BME280;69473;42.426;26.644;2023-10-08T03:02:10;99119.88;;;12.46;63.91
80149;BME280;69473;42.426;26.644;2023-10-08T03:04:45;99131.91;;;12.62;63.97
80149;BME280;69473;42.426;26.644;2023-10-08T03:07:14;99131.94;;;12.56;63.44
80149;BME280;69473;42.426;26.644;2023-10-08T03:09:53;99120.69;;;12.56;64.20
80149;BME280;69473;42.426;26.644;2023-10-08T03:12:35;99122.25;;;12.75;64.01
80149;BME280;69473;42.426;26.644;2023-10-08T03:15:02;99127.34;;;12.84;62.95
80149;BME280;69473;42.426;26.644;2023-10-08T03:17:47;99127.56;;;12.61;63.86
80149;BME280;69473;42.426;26.644;2023-10-08T03:20:17;99133.69;;;12.54;63.29
80149;BME280;69473;42.426;26.644;2023-10-08T03:23:05;99113.00;;;12.42;62.70
80149;BME280;69473;42.426;26.644;2023-10-08T03:25:38;99116.50;;;12.38;64.18
80149;BME280;69473;42.426;26.644;2023-10-08T03:28:10;99113.06;;;12.33;63.57
80149;BME280;69473;42.426;26.644;2023-10-08T03:30:41;99123.50;;;12.27;64.64
80149;BME280;69473;42.426;26.644;2023-10-08T03:33:18;99130.50;;;12.21;63.17
80149;BME280;69473;42.426;26.644;2023-10-08T03:35:52;99127.00;;;12.25;64.23
80149;BME280;69473;42.426;26.644;2023-10-08T03:38:21;99128.69;;;12.30;64.65
80149;BME280;69473;42.426;26.644;2023-10-08T03:40:56;99120.09;;;12.21;64.23
80149;BME280;69473;42.426;26.644;2023-10-08T03:43:34;99114.97;;;12.12;64.79
80149;BME280;69473;42.426;26.644;2023-10-08T03:46:00;99120.09;;;12.24;64.20
80149;BME280;69473;42.426;26.644;2023-10-08T03:48:34;99123.53;;;12.23;64.15
80149;BME280;69473;42.426;26.644;2023-10-08T03:51:03;99120.09;;;12.24;64.11
80149;BME280;69473;42.426;26.644;2023-10-08T03:53:40;99118.34;;;12.23;63.61
80149;BME280;69473;42.426;26.644;2023-10-08T03:56:28;99118.50;;;12.02;64.50
80149;BME280;69473;42.426;26.644;2023-10-08T03:58:57;99127.09;;;12.10;64.03
80149;BME280;69473;42.426;26.644;2023-10-08T04:01:26;99113.22;;;12.14;63.78
80149;BME280;69473;42.426;26.644;2023-10-08T04:03:56;99118.50;;;12.02;63.54
80149;BME280;69473;42.426;26.644;2023-10-08T04:06:27;99115.16;;;11.82;63.54
80149;BME280;69473;42.426;26.644;2023-10-08T04:09:16;99113.47;;;11.74;63.35
80149;BME280;69473;42.426;26.644;2023-10-08T04:11:45;99127.34;;;11.64;64.52
80149;BME280;69473;42.426;26.644;2023-10-08T04:14:21;99106.56;;;11.67;64.65
80149;BME280;69473;42.426;26.644;2023-10-08T04:16:49;99112.53;;;11.83;63.70
80149;BME280;69473;42.426;26.644;2023-10-08T04:19:20;99101.25;;;11.92;63.39
80149;BME280;69473;42.426;26.644;2023-10-08T04:21:47;99110.72;;;12.00;62.82
80149;BME280;69473;42.426;26.644;2023-10-08T04:24:23;99101.22;;;11.95;62.90
80149;BME280;69473;42.426;26.644;2023-10-08T04:27:02;99104.72;;;11.94;62.93
80149;BME280;69473;42.426;26.644;2023-10-08T04:29:34;99108.13;;;11.99;62.47
80149;BME280;69473;42.426;26.644;2023-10-08T04:32:02;99099.50;;;11.97;62.38
80149;BME280;69473;42.426;26.644;2023-10-08T04:34:34;99094.34;;;11.91;63.06
80149;BME280;69473;42.426;26.644;2023-10-08T04:37:00;99097.72;;;12.02;61.85
80149;BME280;69473;42.426;26.644;2023-10-08T04:39:36;99102.78;;;12.20;61.56
80149;BME280;69473;42.426;26.644;2023-10-08T04:42:04;99101.84;;;12.34;60.93
80149;BME280;69473;42.426;26.644;2023-10-08T04:44:39;99103.59;;;12.27;61.40
80149;BME280;69473;42.426;26.644;2023-10-08T04:47:09;99101.00;;;12.24;61.68
80149;BME280;69473;42.426;26.644;2023-10-08T04:49:35;99104.41;;;12.37;62.49
80149;BME280;69473;42.426;26.644;2023-10-08T04:52:05;99112.84;;;12.60;61.63
80149;BME280;69473;42.426;26.644;2023-10-08T04:54:40;99111.66;;;12.93;60.74
80149;BME280;69473;42.426;26.644;2023-10-08T04:57:07;99094.31;;;13.68;57.62
80149;BME280;69473;42.426;26.644;2023-10-08T04:59:43;99111.25;;;15.47;53.03
80149;BME280;69473;42.426;26.644;2023-10-08T05:02:10;99108.69;;;14.49;55.65
80149;BME280;69473;42.426;26.644;2023-10-08T05:04:39;99125.28;;;13.88;56.66
80149;BME280;69473;42.426;26.644;2023-10-08T05:07:31;99115.84;;;13.79;57.93
80149;BME280;69473;42.426;26.644;2023-10-08T05:10:26;99114.09;;;13.81;58.29
80149;BME280;69473;42.426;26.644;2023-10-08T05:12:53;99104.53;;;13.82;58.27
80149;BME280;69473;42.426;26.644;2023-10-08T05:15:32;99106.28;;;13.80;56.85
80149;BME280;69473;42.426;26.644;2023-10-08T05:18:28;99114.44;;;14.16;56.57
80149;BME280;69473;42.426;26.644;2023-10-08T05:21:14;99106.84;;;14.58;55.76
80149;BME280;69473;42.426;26.644;2023-10-08T05:24:05;99104.44;;;15.40;53.45
80149;BME280;69473;42.426;26.644;2023-10-08T05:26:38;99106.31;;;15.75;50.89
80149;BME280;69473;42.426;26.644;2023-10-08T05:29:08;99102.47;;;15.91;49.64
80149;BME280;69473;42.426;26.644;2023-10-08T05:31:52;99105.91;;;15.93;49.13
80149;BME280;69473;42.426;26.644;2023-10-08T05:34:38;99103.38;;;15.90;49.39
80149;BME280;69473;42.426;26.644;2023-10-08T05:37:17;99104.34;;;15.86;49.62
80149;BME280;69473;42.426;26.644;2023-10-08T05:39:58;99108.59;;;15.90;50.54
80149;BME280;69473;42.426;26.644;2023-10-08T05:42:37;99117.94;;;16.01;49.32
80149;BME280;69473;42.426;26.644;2023-10-08T05:45:12;99108.59;;;15.90;49.49
80149;BME280;69473;42.426;26.644;2023-10-08T05:47:37;99122.31;;;16.37;48.38
80149;BME280;69473;42.426;26.644;2023-10-08T05:50:04;99113.25;;;16.51;47.95
80149;BME280;69473;42.426;26.644;2023-10-08T05:52:43;99106.69;;;17.03;46.03
80149;BME280;69473;42.426;26.644;2023-10-08T05:55:22;99102.53;;;17.57;45.21
80149;BME280;69473;42.426;26.644;2023-10-08T05:58:06;99108.22;;;18.00;43.93
80149;BME280;69473;42.426;26.644;2023-10-08T06:00:46;99109.66;;;18.39;42.41
80149;BME280;69473;42.426;26.644;2023-10-08T06:03:31;99105.69;;;17.99;43.04
80149;BME280;69473;42.426;26.644;2023-10-08T06:06:25;99103.00;;;18.82;41.96
80149;BME280;69473;42.426;26.644;2023-10-08T06:09:03;99089.28;;;18.99;38.96
80149;BME280;69473;42.426;26.644;2023-10-08T06:11:36;99098.34;;;18.63;40.83
80149;BME280;69473;42.426;26.644;2023-10-08T06:14:07;99097.13;;;18.47;40.77
80149;BME280;69473;42.426;26.644;2023-10-08T06:16:45;99097.34;;;18.66;40.74
80149;BME280;69473;42.426;26.644;2023-10-08T06:19:13;99081.47;;;18.97;40.50
80149;BME280;69473;42.426;26.644;2023-10-08T06:21:41;99082.38;;;19.43;38.74
80149;BME280;69473;42.426;26.644;2023-10-08T06:24:08;99075.81;;;19.55;39.03
80149;BME280;69473;42.426;26.644;2023-10-08T06:26:40;99082.94;;;19.75;38.60
80149;BME280;69473;42.426;26.644;2023-10-08T06:35:02;99079.50;;;21.02;36.28
80149;BME280;69473;42.426;26.644;2023-10-08T06:37:28;99082.09;;;21.03;36.37
80149;BME280;69473;42.426;26.644;2023-10-08T06:39:53;99069.50;;;21.10;36.23
80149;BME280;69473;42.426;26.644;2023-10-08T06:42:22;99068.03;;;21.03;36.15
80149;BME280;69473;42.426;26.644;2023-10-08T06:44:52;99074.13;;;21.63;35.19
80149;BME280;69473;42.426;26.644;2023-10-08T06:47:23;99072.72;;;23.64;31.36
80149;BME280;69473;42.426;26.644;2023-10-08T06:49:49;99069.84;;;23.53;30.68
80149;BME280;69473;42.426;26.644;2023-10-08T06:52:14;99070.66;;;23.38;30.69
80149;BME280;69473;42.426;26.644;2023-10-08T06:54:40;99074.91;;;24.51;30.13
80149;BME280;69473;42.426;26.644;2023-10-08T06:57:05;99057.63;;;25.47;28.80
80149;BME280;69473;42.426;26.644;2023-10-08T06:59:39;99065.72;;;27.32;26.66
80149;BME280;69473;42.426;26.644;2023-10-08T07:02:08;99059.59;;;29.79;23.13
80149;BME280;69473;42.426;26.644;2023-10-08T07:04:35;99055.59;;;31.12;21.88
80149;BME280;69473;42.426;26.644;2023-10-08T07:07:01;99059.22;;;29.50;23.06
80149;BME280;69473;42.426;26.644;2023-10-08T07:09:26;99059.25;;;27.73;25.39
80149;BME280;69473;42.426;26.644;2023-10-08T07:11:52;99044.22;;;26.84;26.80
80149;BME280;69473;42.426;26.644;2023-10-08T07:14:25;99053.34;;;26.00;27.67
80149;BME280;69473;42.426;26.644;2023-10-08T07:16:56;99048.53;;;25.37;28.91
80149;BME280;69473;42.426;26.644;2023-10-08T07:19:29;99043.78;;;24.55;28.96
80149;BME280;69473;42.426;26.644;2023-10-08T07:22:03;99041.63;;;24.47;29.96
80149;BME280;69473;42.426;26.644;2023-10-08T07:24:34;99037.38;;;24.29;30.51
80149;BME280;69473;42.426;26.644;2023-10-08T07:27:03;99037.00;;;24.35;30.34
80149;BME280;69473;42.426;26.644;2023-10-08T07:29:35;99042.69;;;23.34;31.37
80149;BME280;69473;42.426;26.644;2023-10-08T07:32:00;99033.31;;;23.44;31.92
80149;BME280;69473;42.426;26.644;2023-10-08T07:34:36;99036.03;;;23.58;30.98
80149;BME280;69473;42.426;26.644;2023-10-08T07:37:02;99037.44;;;24.43;30.53
80149;BME280;69473;42.426;26.644;2023-10-08T07:39:27;99022.31;;;26.68;27.05
80149;BME280;69473;42.426;26.644;2023-10-08T07:42:04;99021.50;;;28.98;23.30
80149;BME280;69473;42.426;26.644;2023-10-08T07:44:34;99017.84;;;31.15;21.40
80149;BME280;69473;42.426;26.644;2023-10-08T07:47:05;99013.28;;;31.77;20.13
80149;BME280;69473;42.426;26.644;2023-10-08T07:49:36;99000.81;;;33.02;19.13
80149;BME280;69473;42.426;26.644;2023-10-08T07:52:01;98995.53;;;33.93;18.41
80149;BME280;69473;42.426;26.644;2023-10-08T07:54:29;99000.81;;;34.38;17.69
80149;BME280;69473;42.426;26.644;2023-10-08T07:57:00;99001.53;;;34.58;17.85
80149;BME280;69473;42.426;26.644;2023-10-08T07:59:41;99007.53;;;35.97;16.88
80149;BME280;69473;42.426;26.644;2023-10-08T08:02:09;98995.72;;;37.75;15.35
80149;BME280;69473;42.426;26.644;2023-10-08T08:04:41;98992.09;;;37.60;14.78
80149;BME280;69473;42.426;26.644;2023-10-08T08:07:13;98986.00;;;36.22;16.43
80149;BME280;69473;42.426;26.644;2023-10-08T08:09:45;98985.00;;;37.19;15.92
80149;BME280;69473;42.426;26.644;2023-10-08T08:12:17;98972.94;;;37.47;15.02
80149;BME280;69473;42.426;26.644;2023-10-08T08:14:45;98967.91;;;38.35;14.44
80149;BME280;69473;42.426;26.644;2023-10-08T08:17:10;98960.97;;;38.56;14.05
80149;BME280;69473;42.426;26.644;2023-10-08T08:19:49;98961.38;;;39.42;13.07
80149;BME280;69473;42.426;26.644;2023-10-08T08:22:16;98960.81;;;39.32;12.83
80149;BME280;69473;42.426;26.644;2023-10-08T08:24:53;98952.66;;;38.72;12.52
80149;BME280;69473;42.426;26.644;2023-10-08T08:27:28;98946.19;;;40.27;11.89
80149;BME280;69473;42.426;26.644;2023-10-08T08:29:58;98944.69;;;41.76;10.88
80149;BME280;69473;42.426;26.644;2023-10-08T08:32:36;98933.31;;;40.63;10.75
80149;BME280;69473;42.426;26.644;2023-10-08T08:35:07;98929.19;;;41.64;10.17
80149;BME280;69473;42.426;26.644;2023-10-08T08:37:33;98915.44;;;41.98;9.95
80149;BME280;69473;42.426;26.644;2023-10-08T08:40:08;98928.00;;;42.13;10.26
80149;BME280;69473;42.426;26.644;2023-10-08T08:42:48;98925.44;;;41.78;9.91
80149;BME280;69473;42.426;26.644;2023-10-08T08:45:24;98909.44;;;41.35;9.94
80149;BME280;69473;42.426;26.644;2023-10-08T08:47:50;98908.72;;;42.08;9.98
80149;BME280;69473;42.426;26.644;2023-10-08T08:50:19;98916.72;;;43.14;9.66
80149;BME280;69473;42.426;26.644;2023-10-08T08:52:46;98915.34;;;43.36;9.16
80149;BME280;69473;42.426;26.644;2023-10-08T08:55:12;98910.78;;;44.25;9.13
80149;BME280;69473;42.426;26.644;2023-10-08T08:57:46;98911.03;;;42.51;8.82
80149;BME280;69473;42.426;26.644;2023-10-08T09:00:14;98915.88;;;42.15;9.87
80149;BME280;69473;42.426;26.644;2023-10-08T09:02:42;98892.16;;;41.63;9.80
80149;BME280;69473;42.426;26.644;2023-10-08T09:05:10;98887.69;;;42.88;9.48
80149;BME280;69473;42.426;26.644;2023-10-08T09:07:56;98881.94;;;41.03;9.63
80149;BME280;69473;42.426;26.644;2023-10-08T09:10:24;98882.22;;;41.28;9.67
80149;BME280;69473;42.426;26.644;2023-10-08T09:12:57;98877.59;;;41.16;9.85
80149;BME280;69473;42.426;26.644;2023-10-08T09:15:26;98878.09;;;42.72;9.22
80149;BME280;69473;42.426;26.644;2023-10-08T09:17:53;98879.06;;;40.77;10.02
80149;BME280;69473;42.426;26.644;2023-10-08T09:20:20;98873.28;;;40.93;9.96
80149;BME280;69473;42.426;26.644;2023-10-08T09:22:48;98871.78;;;39.14;10.77
80149;BME280;69473;42.426;26.644;2023-10-08T09:25:33;98881.50;;;40.09;10.38
80149;BME280;69473;42.426;26.644;2023-10-08T09:27:59;98870.63;;;37.81;11.71
80149;BME280;69473;42.426;26.644;2023-10-08T09:30:25;98873.63;;;35.14;14.39
80149;BME280;69473;42.426;26.644;2023-10-08T09:32:51;98858.28;;;32.95;15.74
80149;BME280;69473;42.426;26.644;2023-10-08T09:35:18;98875.34;;;32.29;17.06
80149;BME280;69473;42.426;26.644;2023-10-08T09:37:44;98865.47;;;31.03;17.12
80149;BME280;69473;42.426;26.644;2023-10-08T09:40:11;98856.38;;;29.82;18.30
80149;BME280;69473;42.426;26.644;2023-10-08T09:42:42;98849.91;;;29.63;19.30
80149;BME280;69473;42.426;26.644;2023-10-08T09:45:08;98843.00;;;29.50;19.00
80149;BME280;69473;42.426;26.644;2023-10-08T09:47:42;98834.66;;;29.43;19.18
80149;BME280;69473;42.426;26.644;2023-10-08T09:50:11;98833.06;;;29.19;19.19
80149;BME280;69473;42.426;26.644;2023-10-08T09:53:12;98837.94;;;29.14;20.21
80149;BME280;69473;42.426;26.644;2023-10-08T09:55:55;98828.66;;;29.30;20.18
80149;BME280;69473;42.426;26.644;2023-10-08T09:58:27;98823.59;;;29.27;19.73
80149;BME280;69473;42.426;26.644;2023-10-08T10:00:56;98812.00;;;28.94;20.25
80149;BME280;69473;42.426;26.644;2023-10-08T10:03:25;98805.53;;;28.64;20.62
80149;BME280;69473;42.426;26.644;2023-10-08T10:05:51;98808.78;;;28.57;20.48
80149;BME280;69473;42.426;26.644;2023-10-08T10:08:18;98809.47;;;28.92;21.19
80149;BME280;69473;42.426;26.644;2023-10-08T10:10:45;98793.72;;;28.89;20.39
80149;BME280;69473;42.426;26.644;2023-10-08T10:13:16;98794.56;;;28.90;20.09
80149;BME280;69473;42.426;26.644;2023-10-08T10:15:43;98799.41;;;28.96;21.24
80149;BME280;69473;42.426;26.644;2023-10-08T10:21:24;98779.66;;;28.87;20.34
80149;BME280;69473;42.426;26.644;2023-10-08T10:23:48;98780.06;;;28.71;21.00
80149;BME280;69473;42.426;26.644;2023-10-08T10:26:30;98785.88;;;28.65;20.22
80149;BME280;69473;42.426;26.644;2023-10-08T10:31:47;98768.66;;;28.81;20.72
80149;BME280;69473;42.426;26.644;2023-10-08T10:34:14;98769.16;;;28.74;21.93
80149;BME280;69473;42.426;26.644;2023-10-08T10:36:43;98772.25;;;28.91;21.45
80149;BME280;69473;42.426;26.644;2023-10-08T10:39:12;98763.47;;;29.22;21.48
80149;BME280;69473;42.426;26.644;2023-10-08T10:41:53;98768.88;;;29.32;21.10
80149;BME280;69473;42.426;26.644;2023-10-08T10:44:33;98765.78;;;29.37;21.46
80149;BME280;69473;42.426;26.644;2023-10-08T10:47:02;98752.78;;;29.22;20.02
80149;BME280;69473;42.426;26.644;2023-10-08T10:49:48;98745.31;;;29.05;21.45
80149;BME280;69473;42.426;26.644;2023-10-08T10:52:14;98748.63;;;29.30;21.38
80149;BME280;69473;42.426;26.644;2023-10-08T10:55:05;98749.38;;;29.20;21.34
80149;BME280;69473;42.426;26.644;2023-10-08T10:57:56;98741.25;;;29.22;21.06
80149;BME280;69473;42.426;26.644;2023-10-08T11:00:30;98716.47;;;28.99;21.50
80149;BME280;69473;42.426;26.644;2023-10-08T11:02:56;98707.81;;;28.86;21.20
80149;BME280;69473;42.426;26.644;2023-10-08T11:05:33;98725.41;;;29.09;22.34
80149;BME280;69473;42.426;26.644;2023-10-08T11:08:05;98707.09;;;29.37;21.68
80149;BME280;69473;42.426;26.644;2023-10-08T11:10:34;98707.16;;;29.46;21.14
80149;BME280;69473;42.426;26.644;2023-10-08T11:13:01;98700.06;;;29.36;22.14
80149;BME280;69473;42.426;26.644;2023-10-08T11:15:29;98717.34;;;29.32;20.91
80149;BME280;69473;42.426;26.644;2023-10-08T11:18:33;98712.44;;;29.37;21.48
80149;BME280;69473;42.426;26.644;2023-10-08T11:21:09;98698.72;;;29.41;21.14
80149;BME280;69473;42.426;26.644;2023-10-08T11:23:49;98708.13;;;29.24;20.73
80149;BME280;69473;42.426;26.644;2023-10-08T11:26:23;98697.72;;;29.42;21.07
80149;BME280;69473;42.426;26.644;2023-10-08T11:29:01;98698.78;;;29.51;21.64
80149;BME280;69473;42.426;26.644;2023-10-08T11:31:29;98697.97;;;29.60;21.23
80149;BME280;69473;42.426;26.644;2023-10-08T11:33:59;98703.66;;;29.67;21.85
80149;BME280;69473;42.426;26.644;2023-10-08T11:36:28;98692.91;;;29.57;20.96
80149;BME280;69473;42.426;26.644;2023-10-08T11:38:55;98700.91;;;29.57;21.88
80149;BME280;69473;42.426;26.644;2023-10-08T11:41:27;98699.34;;;29.55;21.41
80149;BME280;69473;42.426;26.644;2023-10-08T11:43:56;98693.44;;;29.51;21.71
80149;BME280;69473;42.426;26.644;2023-10-08T11:46:26;98682.50;;;29.54;21.61
80149;BME280;69473;42.426;26.644;2023-10-08T11:48:59;98687.81;;;29.54;21.76
80149;BME280;69473;42.426;26.644;2023-10-08T11:51:33;98675.44;;;29.53;21.28
80149;BME280;69473;42.426;26.644;2023-10-08T11:54:03;98692.63;;;29.60;21.36
80149;BME280;69473;42.426;26.644;2023-10-08T11:56:32;98682.22;;;29.57;21.37
80149;BME280;69473;42.426;26.644;2023-10-08T11:59:01;98674.03;;;29.49;21.03
80149;BME280;69473;42.426;26.644;2023-10-08T12:01:30;98666.75;;;29.51;21.72
80149;BME280;69473;42.426;26.644;2023-10-08T12:04:04;98668.41;;;29.52;20.99
80149;BME280;69473;42.426;26.644;2023-10-08T12:06:32;98660.38;;;29.63;21.07
80149;BME280;69473;42.426;26.644;2023-10-08T12:08:58;98664.06;;;29.51;21.56
80149;BME280;69473;42.426;26.644;2023-10-08T12:11:25;98655.22;;;29.51;21.71
80149;BME280;69473;42.426;26.644;2023-10-08T12:13:57;98650.19;;;29.57;22.17
80149;BME280;69473;42.426;26.644;2023-10-08T12:16:26;98639.97;;;29.62;22.27
80149;BME280;69473;42.426;26.644;2023-10-08T12:18:56;98640.97;;;29.61;21.66
80149;BME280;69473;42.426;26.644;2023-10-08T12:21:25;98636.69;;;29.59;22.34
80149;BME280;69473;42.426;26.644;2023-10-08T12:23:51;98642.84;;;29.71;21.98
80149;BME280;69473;42.426;26.644;2023-10-08T12:26:18;98625.41;;;29.66;22.50
80149;BME280;69473;42.426;26.644;2023-10-08T12:28:46;98632.84;;;29.63;22.09
80149;BME280;69473;42.426;26.644;2023-10-08T12:31:19;98630.78;;;29.55;21.92
80149;BME280;69473;42.426;26.644;2023-10-08T12:33:48;98639.00;;;29.63;22.66
80149;BME280;69473;42.426;26.644;2023-10-08T12:36:14;98620.09;;;29.55;22.34
80149;BME280;69473;42.426;26.644;2023-10-08T12:38:43;98616.72;;;29.53;22.67
80149;BME280;69473;42.426;26.644;2023-10-08T12:41:12;98616.97;;;29.50;22.66
80149;BME280;69473;42.426;26.644;2023-10-08T12:43:42;98629.09;;;29.54;22.25
80149;BME280;69473;42.426;26.644;2023-10-08T12:46:09;98625.97;;;29.49;23.02
80149;BME280;69473;42.426;26.644;2023-10-08T12:48:48;98631.31;;;29.49;22.37
80149;BME280;69473;42.426;26.644;2023-10-08T12:51:18;98630.75;;;29.45;23.25
80149;BME280;69473;42.426;26.644;2023-10-08T12:53:46;98623.72;;;29.44;23.33
80149;BME280;69473;42.426;26.644;2023-10-08T12:56:25;98623.72;;;29.44;22.81
80149;BME280;69473;42.426;26.644;2023-10-08T12:58:58;98633.00;;;29.50;22.38
80149;BME280;69473;42.426;26.644;2023-10-08T13:01:24;98608.81;;;29.42;23.15
80149;BME280;69473;42.426;26.644;2023-10-08T13:03:54;98617.88;;;29.30;22.72
80149;BME280;69473;42.426;26.644;2023-10-08T13:06:27;98627.31;;;29.34;22.49
80149;BME280;69473;42.426;26.644;2023-10-08T13:08:57;98603.13;;;29.26;22.15
80149;BME280;69473;42.426;26.644;2023-10-08T13:11:25;98611.56;;;29.31;23.05
80149;BME280;69473;42.426;26.644;2023-10-08T13:13:56;98595.28;;;29.34;22.35
80149;BME280;69473;42.426;26.644;2023-10-08T13:16:27;98604.16;;;29.13;22.41
80149;BME280;69473;42.426;26.644;2023-10-08T13:19:03;98593.75;;;29.10;22.84
80149;BME280;69473;42.426;26.644;2023-10-08T13:21:29;98600.25;;;29.17;22.89
80149;BME280;69473;42.426;26.644;2023-10-08T13:23:57;98601.63;;;29.12;22.15
80149;BME280;69473;42.426;26.644;2023-10-08T13:26:25;98605.91;;;29.03;22.29